Time;durP1;ratioP1;P1;durP2;ratioP2;P2;SDS_P1;SDS_P2;PMS_P1;PMS_P2;Temp;Humidity;BMP_temperature;BMP_pressure;BME280_temperature;BME280_humidity;BME280_pressure;Samples;Min_cycle;Max_cycle;Signal;HPM_P1;HPM_P2
2022/11/12 06:57:21;;;;;;;;;;;;;;;13.47;73.62;98370.47;4264036;27;10353;-62
2022/11/12 06:59:24;;;;;;;;;;;;;;;13.72;72.72;98365.88;4264409;27;5675;-63
2022/11/12 07:01:26;;;;;;;;;;;;;;;13.93;72.43;98366.91;4264006;27;6413;-63
2022/11/12 07:03:29;;;;;;;;;;;;;;;14.11;71.92;98369.28;4264978;27;5636;-63
2022/11/12 07:05:32;;;;;;;;;;;;;;;14.25;71.53;98365.00;4265529;27;5844;-63
2022/11/12 07:07:35;;;;;;;;;;;;;;;14.37;71.25;98374.22;4264974;27;5711;-63
2022/11/12 07:09:37;;;;;;;;;;;;;;;14.45;71.13;98363.56;4264859;27;5632;-62
2022/11/12 07:11:40;;;;;;;;;;;;;;;14.54;70.70;98359.00;4264524;27;5705;-63
2022/11/12 07:13:45;;;;;;;;;;;;;;;14.62;70.59;98366.91;4264728;27;5635;-64
2022/11/12 07:15:47;;;;;;;;;;;;;;;14.67;70.45;98366.34;4264413;27;6313;-64
2022/11/12 07:17:50;;;;;;;;;;;;;;;14.71;69.96;98372.97;4264322;27;5711;-64
2022/11/12 07:19:53;;;;;;;;;;;;;;;14.74;69.95;98364.63;4264908;27;5616;-64
2022/11/12 07:22:01;;;;;;;;;;;;;;;14.77;69.63;98364.25;4266871;27;6000;-64
2022/11/12 07:24:03;;;;;;;;;;;;;;;14.78;69.61;98374.72;4274203;27;7668;-64
2022/11/12 07:26:11;;;;;;;;;;;;;;;14.78;69.39;98368.59;4263799;27;5612;-64
2022/11/12 07:28:14;;;;;;;;;;;;;;;14.82;69.43;98377.84;4263329;27;5699;-64
2022/11/12 07:30:18;;;;;;;;;;;;;;;14.84;69.16;98375.84;4264364;27;5079;-64
2022/11/12 07:32:21;;;;;;;;;;;;;;;14.87;69.03;98375.50;4264156;27;5591;-64
2022/11/12 07:34:23;;;;;;;;;;;;;;;14.88;69.01;98374.47;4264171;27;5620;-64
2022/11/12 07:36:26;;;;;;;;;;;;;;;14.91;68.84;98381.25;4264168;27;5571;-64
2022/11/12 07:38:30;;;;;;;;;;;;;;;14.93;68.73;98379.25;4264363;27;5623;-64
2022/11/12 07:40:33;;;;;;;;;;;;;;;14.92;68.53;98381.06;4268177;27;5624;-64
2022/11/12 07:42:36;;;;;;;;;;;;;;;14.93;68.50;98379.25;4264389;27;5632;-64
2022/11/12 07:44:38;;;;;;;;;;;;;;;14.95;68.22;98391.38;4264386;27;5702;-64
2022/11/12 07:46:42;;;;;;;;;;;;;;;14.94;68.22;98391.53;4263725;27;5812;-64
2022/11/12 07:48:45;;;;;;;;;;;;;;;14.96;68.14;98386.88;4264282;27;5623;-64
2022/11/12 07:50:48;;;;;;;;;;;;;;;14.98;68.07;98388.34;4264154;27;5711;-64
2022/11/12 07:52:51;;;;;;;;;;;;;;;14.97;67.93;98389.38;4264353;27;5606;-64
2022/11/12 07:54:53;;;;;;;;;;;;;;;14.97;67.70;98394.69;4264210;27;5631;-65
2022/11/12 07:56:56;;;;;;;;;;;;;;;14.98;67.73;98399.00;4260568;27;5628;-65
2022/11/12 07:58:59;;;;;;;;;;;;;;;14.98;67.58;98399.00;4251613;27;5615;-65
2022/11/12 08:01:08;;;;;;;;;;;;;;;14.99;67.30;98395.34;4252592;27;5801;-64
2022/11/12 08:03:12;;;;;;;;;;;;;;;15.00;67.09;98390.84;4252304;27;5723;-64
2022/11/12 08:05:15;;;;;;;;;;;;;;;15.00;66.86;98391.66;4244126;27;5654;-62
2022/11/12 08:07:23;;;;;;;;;;;;;;;15.01;67.07;98380.00;4252128;27;5620;-63
2022/11/12 08:09:25;;;;;;;;;;;;;;;15.02;66.83;98389.63;4252161;27;5711;-63
2022/11/12 08:11:28;;;;;;;;;;;;;;;15.03;66.77;98391.28;4252195;27;5804;-63
2022/11/12 08:13:31;;;;;;;;;;;;;;;15.02;66.78;98394.97;4256148;27;5771;-63
2022/11/12 08:15:34;;;;;;;;;;;;;;;15.04;66.49;98395.59;4251977;27;5624;-63
2022/11/12 08:17:38;;;;;;;;;;;;;;;15.04;66.49;98398.25;4251909;27;5711;-64
2022/11/12 08:19:42;;;;;;;;;;;;;;;15.05;66.33;98389.25;4252414;27;5094;-64
2022/11/12 08:21:45;;;;;;;;;;;;;;;15.04;66.41;98398.25;4250471;27;5891;-64
2022/11/12 08:23:48;;;;;;;;;;;;;;;15.06;66.28;98395.41;4249293;27;5832;-63
2022/11/12 08:25:50;;;;;;;;;;;;;;;15.06;66.08;98392.75;4246808;27;5706;-63
2022/11/12 08:27:56;;;;;;;;;;;;;;;15.04;65.94;98392.94;4252528;27;5624;-64
2022/11/12 08:29:59;;;;;;;;;;;;;;;15.05;65.84;98389.25;4252399;27;5753;-63
2022/11/12 08:32:02;;;;;;;;;;;;;;;15.06;65.69;98395.41;4251790;27;5624;-64
2022/11/12 08:34:10;;;;;;;;;;;;;;;15.06;65.53;98395.41;4252415;27;5645;-63
2022/11/12 08:36:17;;;;;;;;;;;;;;;15.07;65.50;98391.78;4252678;27;5734;-63
2022/11/12 08:38:19;;;;;;;;;;;;;;;15.05;65.62;98391.91;4252647;27;5632;-64
2022/11/12 08:40:22;;;;;;;;;;;;;;;15.06;65.32;98395.41;4252360;27;5624;-63
2022/11/12 08:42:25;;;;;;;;;;;;;;;15.06;65.42;98398.94;4252392;27;5722;-64
2022/11/12 08:44:28;;;;;;;;;;;;;;;15.07;65.40;98407.75;4252139;27;5718;-63
2022/11/12 08:46:30;;;;;;;;;;;;;;;15.08;65.21;98404.06;4252303;27;5725;-63
2022/11/12 08:48:34;;;;;;;;;;;;;;;15.07;65.27;98403.25;4255885;27;5114;-63
2022/11/12 08:50:37;;;;;;;;;;;;;;;15.09;65.00;98401.22;4252072;27;5620;-63
2022/11/12 08:52:41;;;;;;;;;;;;;;;15.08;65.03;98398.75;4252041;27;5628;-64
2022/11/12 08:54:44;;;;;;;;;;;;;;;15.09;64.92;98401.22;4251964;27;5612;-64
2022/11/12 08:56:47;;;;;;;;;;;;;;;15.09;64.78;98400.41;4251656;27;5620;-63
2022/11/12 08:58:49;;;;;;;;;;;;;;;15.08;64.67;98394.25;4249680;27;5649;-63
2022/11/12 09:00:53;;;;;;;;;;;;;;;15.12;64.47;98402.69;4251068;27;5714;-64
2022/11/12 09:02:56;;;;;;;;;;;;;;;15.14;64.70;98406.81;4241464;27;5831;-64
2022/11/12 09:04:59;;;;;;;;;;;;;;;15.18;64.49;98409.13;4243289;27;5735;-64
2022/11/12 09:07:01;;;;;;;;;;;;;;;15.20;64.38;98409.78;4251519;27;5663;-64
2022/11/12 09:09:06;;;;;;;;;;;;;;;15.21;64.19;98408.75;4250098;27;5628;-64
2022/11/12 09:11:08;;;;;;;;;;;;;;;15.22;64.31;98413.06;4248776;27;5631;-63
2022/11/12 09:13:12;;;;;;;;;;;;;;;15.22;64.10;98405.09;4249317;27;6153;-65
2022/11/12 09:15:15;;;;;;;;;;;;;;;15.24;64.12;98405.72;4243099;27;6535;-65
2022/11/12 09:17:38;;;;;;;;;;;;;;;15.25;64.20;98408.19;4239058;27;5861;-65
2022/11/12 09:19:41;;;;;;;;;;;;;;;15.25;64.04;98408.19;4242731;27;5762;-65
2022/11/12 09:21:45;;;;;;;;;;;;;;;15.26;64.03;98407.19;4251560;27;5735;-65
2022/11/12 09:23:47;;;;;;;;;;;;;;;15.28;64.00;98415.00;4244134;27;5707;-66
2022/11/12 09:25:51;;;;;;;;;;;;;;;15.29;63.66;98403.31;4243889;27;5699;-65
2022/11/12 09:27:54;;;;;;;;;;;;;;;15.28;63.92;98410.50;4244762;27;5640;-65
2022/11/12 09:29:57;;;;;;;;;;;;;;;15.29;63.89;98405.97;4237268;27;5914;-65
2022/11/12 09:32:00;;;;;;;;;;;;;;;15.30;63.92;98407.66;4241607;27;5653;-65
2022/11/12 09:34:04;;;;;;;;;;;;;;;15.33;63.63;98401.97;4243442;27;6689;-66
2022/11/12 09:36:08;;;;;;;;;;;;;;;15.34;63.76;98408.94;4248565;27;5671;-65
2022/11/12 09:38:10;;;;;;;;;;;;;;;15.36;63.53;98404.25;4243469;27;5616;-65
2022/11/12 09:40:18;;;;;;;;;;;;;;;15.37;63.55;98408.56;4248113;27;5664;-65
2022/11/12 09:42:22;;;;;;;;;;;;;;;15.38;63.62;98416.38;4249295;27;5632;-65
2022/11/12 09:44:25;;;;;;;;;;;;;;;15.41;63.64;98415.19;4243863;27;6329;-65
2022/11/12 09:46:38;;;;;;;;;;;;;;;15.41;63.24;98417.88;4243768;27;5627;-65
2022/11/12 09:48:47;;;;;;;;;;;;;;;15.41;63.38;98409.88;4245343;27;5790;-65
2022/11/12 09:50:58;;;;;;;;;;;;;;;15.41;63.20;98424.03;4244753;27;5094;-65
2022/11/12 09:53:04;;;;;;;;;;;;;;;15.43;63.34;98423.84;4240406;27;5664;-65
2022/11/12 09:55:14;;;;;;;;;;;;;;;15.42;63.06;98425.69;4246853;27;5669;-65
2022/11/12 09:57:17;;;;;;;;;;;;;;;15.42;63.26;98427.50;4242992;27;5932;-65
2022/11/12 09:59:23;;;;;;;;;;;;;;;15.40;63.21;98425.03;4245189;27;5643;-65
2022/11/12 10:01:43;;;;;;;;;;;;;;;15.41;63.22;98425.88;4250666;27;5603;-65
2022/11/12 10:03:57;;;;;;;;;;;;;;;15.44;63.13;98420.16;4250197;27;5967;-65
2022/11/12 10:06:04;;;;;;;;;;;;;;;15.46;62.96;98420.78;4240262;27;5645;-65
2022/11/12 10:08:33;;;;;;;;;;;;;;;15.47;63.01;98418.94;4240140;27;5727;-65
2022/11/12 10:10:44;;;;;;;;;;;;;;;15.47;62.84;98411.78;4250819;27;5640;-65
2022/11/12 10:13:02;;;;;;;;;;;;;;;15.48;63.04;98416.09;4250870;27;5698;-65
2022/11/12 10:17:54;;;;;;;;;;;;;;;15.53;62.71;98403.06;4250438;27;5612;-65
2022/11/12 10:20:06;;;;;;;;;;;;;;;15.55;62.67;98403.69;4239870;27;5704;-65
2022/11/12 10:22:24;;;;;;;;;;;;;;;15.56;62.67;98401.84;4233735;28;5645;-65
2022/11/12 10:24:34;;;;;;;;;;;;;;;15.56;62.64;98396.53;4245838;27;5632;-65
2022/11/12 10:26:37;;;;;;;;;;;;;;;15.57;62.55;98400.84;4249825;27;5763;-65
2022/11/12 10:28:45;;;;;;;;;;;;;;;15.57;62.68;98393.66;4241847;27;5744;-65
2022/11/12 10:30:50;;;;;;;;;;;;;;;15.57;62.65;98388.34;4242537;27;5649;-65
2022/11/12 10:32:53;;;;;;;;;;;;;;;15.60;62.41;98392.50;4241791;27;5617;-65
2022/11/12 10:34:56;;;;;;;;;;;;;;;15.59;62.53;98375.66;4240033;27;5796;-66
2022/11/12 10:37:02;;;;;;;;;;;;;;;15.58;62.49;98379.31;4233505;28;5633;-65
2022/11/12 10:39:05;;;;;;;;;;;;;;;15.59;62.58;98372.16;4236648;27;5731;-65
2022/11/12 10:41:20;;;;;;;;;;;;;;;15.59;62.35;98370.31;4244125;27;6421;-65
2022/11/12 10:43:24;;;;;;;;;;;;;;;15.61;62.20;98357.66;4244986;27;5880;-66
2022/11/12 10:45:28;;;;;;;;;;;;;;;15.63;62.16;98370.81;4248638;27;5640;-65
2022/11/12 10:47:37;;;;;;;;;;;;;;;15.62;62.23;98359.31;4247143;27;5738;-65
2022/11/12 10:49:40;;;;;;;;;;;;;;;15.63;62.36;98360.16;4244725;27;5625;-66
2022/11/12 10:51:55;;;;;;;;;;;;;;;15.64;62.13;98356.47;4248816;27;5619;-66
2022/11/12 10:53:57;;;;;;;;;;;;;;;15.64;62.16;98357.31;4249722;27;5679;-66
2022/11/12 10:56:02;;;;;;;;;;;;;;;15.64;62.44;98356.47;4249327;27;5613;-66
2022/11/12 10:58:07;;;;;;;;;;;;;;;15.64;61.92;98349.31;4246543;27;5762;-65
2022/11/12 11:00:20;;;;;;;;;;;;;;;15.62;62.04;98353.16;4244491;27;5762;-66
2022/11/12 11:02:22;;;;;;;;;;;;;;;15.61;62.24;98346.16;4246921;27;5837;-66
2022/11/12 11:04:31;;;;;;;;;;;;;;;15.59;62.17;98346.31;4247648;27;5624;-66
2022/11/12 11:06:34;;;;;;;;;;;;;;;15.61;62.10;98335.50;4243431;27;5657;-65
2022/11/12 11:08:40;;;;;;;;;;;;;;;15.60;62.16;98336.53;4237534;27;5616;-65
2022/11/12 11:10:43;;;;;;;;;;;;;;;15.63;62.15;98339.66;4242391;27;5747;-65
2022/11/12 11:12:45;;;;;;;;;;;;;;;15.67;62.16;98337.44;4238511;27;5653;-66
2022/11/12 11:15:06;;;;;;;;;;;;;;;15.70;62.12;98318.38;4243543;27;5841;-65
2022/11/12 11:17:16;;;;;;;;;;;;;;;15.71;61.87;98322.69;4245373;27;5631;-65
2022/11/12 11:19:19;;;;;;;;;;;;;;;15.67;61.77;98322.25;4241857;27;5622;-65
2022/11/12 11:21:44;;;;;;;;;;;;;;;15.64;62.08;98311.97;4242257;27;5645;-65
2022/11/12 11:23:56;;;;;;;;;;;;;;;15.65;61.93;98316.28;4237013;27;6350;-65
2022/11/12 11:26:06;;;;;;;;;;;;;;;15.67;62.09;98308.09;4242659;27;5731;-65
2022/11/12 11:28:22;;;;;;;;;;;;;;;15.66;62.07;98304.63;4241649;27;5644;-65
2022/11/12 11:30:25;;;;;;;;;;;;;;;15.64;61.73;98300.50;4243335;27;5715;-65
2022/11/12 11:32:49;;;;;;;;;;;;;;;15.60;61.97;98315.19;4242132;27;5784;-65
2022/11/12 11:35:06;;;;;;;;;;;;;;;15.62;61.76;98305.16;4248802;27;5927;-65
2022/11/12 11:37:24;;;;;;;;;;;;;;;15.64;61.85;98296.00;4249067;27;5616;-65
2022/11/12 11:39:39;;;;;;;;;;;;;;;15.68;61.93;98297.25;4253178;27;5590;-65
2022/11/12 11:41:51;;;;;;;;;;;;;;;15.71;61.71;98288.88;4248205;27;5685;-65
2022/11/12 11:44:04;;;;;;;;;;;;;;;15.71;61.71;98302.19;4253332;27;5616;-66
2022/11/12 11:46:23;;;;;;;;;;;;;;;15.70;61.60;98297.88;4253176;27;5590;-66
2022/11/12 11:48:38;;;;;;;;;;;;;;;15.69;61.58;98298.91;4249070;27;5624;-65
2022/11/12 11:50:46;;;;;;;;;;;;;;;15.71;61.76;98286.19;4252696;27;5839;-65
2022/11/12 11:53:01;;;;;;;;;;;;;;;15.71;61.49;98288.88;4245695;27;5736;-65
2022/11/12 11:55:19;;;;;;;;;;;;;;;15.71;61.50;98296.88;4237244;27;6985;-65
2022/11/12 11:57:28;;;;;;;;;;;;;;;15.70;61.42;98286.38;4249214;27;5628;-64
2022/11/12 11:59:45;;;;;;;;;;;;;;;15.69;61.38;98290.06;4244002;27;5729;-65
2022/11/12 12:02:04;;;;;;;;;;;;;;;15.69;61.42;98274.06;4247787;27;5640;-65
2022/11/12 12:04:23;;;;;;;;;;;;;;;15.67;61.38;98276.94;4246991;27;5768;-65
2022/11/12 12:06:27;;;;;;;;;;;;;;;15.68;61.45;98275.91;4244506;27;5620;-64
2022/11/12 12:08:44;;;;;;;;;;;;;;;15.68;61.43;98267.94;4245951;27;5899;-65
2022/11/12 12:10:57;;;;;;;;;;;;;;;15.69;61.36;98266.09;4252911;27;5698;-65
2022/11/12 12:13:21;;;;;;;;;;;;;;;15.68;61.31;98267.09;4248668;27;5590;-65
2022/11/12 12:15:45;;;;;;;;;;;;;;;15.68;61.35;98262.59;4250981;27;5635;-64
2022/11/12 12:17:56;;;;;;;;;;;;;;;15.70;61.22;98260.56;4253247;27;5618;-65
2022/11/12 12:20:11;;;;;;;;;;;;;;;15.71;61.12;98256.06;4248785;27;5687;-64
2022/11/12 12:22:20;;;;;;;;;;;;;;;15.75;61.13;98253.84;4239052;27;5831;-64
2022/11/12 12:24:30;;;;;;;;;;;;;;;15.78;61.16;98253.47;4242172;27;5762;-64
2022/11/12 12:26:38;;;;;;;;;;;;;;;15.77;61.09;98249.16;4247110;27;5770;-64
2022/11/12 12:28:46;;;;;;;;;;;;;;;15.79;61.04;98244.44;4249422;27;6308;-65
2022/11/12 12:30:53;;;;;;;;;;;;;;;15.78;61.12;98238.28;4250922;27;5839;-64
2022/11/12 12:33:02;;;;;;;;;;;;;;;15.79;60.95;98234.59;4250527;27;5627;-64
2022/11/12 12:35:16;;;;;;;;;;;;;;;15.81;60.97;98229.06;4245956;27;5657;-65
2022/11/12 12:37:24;;;;;;;;;;;;;;;15.82;61.04;98230.72;4240846;27;5644;-65
2022/11/12 12:39:37;;;;;;;;;;;;;;;15.80;61.06;98227.44;4251529;27;5614;-65
2022/11/12 12:41:53;;;;;;;;;;;;;;;15.79;60.86;98225.78;4251999;27;5703;-64
2022/11/12 12:44:02;;;;;;;;;;;;;;;15.81;60.97;98223.75;4251737;27;5632;-64
2022/11/12 12:46:06;;;;;;;;;;;;;;;15.81;60.87;98218.41;4253576;27;5739;-64
2022/11/12 12:48:15;;;;;;;;;;;;;;;15.82;60.79;98220.06;4251256;27;5636;-64
2022/11/12 12:50:21;;;;;;;;;;;;;;;15.79;60.87;98215.94;4243576;27;5649;-64
2022/11/12 12:52:24;;;;;;;;;;;;;;;15.79;60.80;98209.78;4248419;27;5619;-64
2022/11/12 12:54:57;;;;;;;;;;;;;;;15.78;60.67;98213.47;4243564;27;5721;-64
2022/11/12 12:57:00;;;;;;;;;;;;;;;15.78;60.65;98210.81;4248689;27;6271;-64
2022/11/12 12:59:03;;;;;;;;;;;;;;;15.74;60.82;98207.66;4242462;27;5776;-64
2022/11/12 13:01:11;;;;;;;;;;;;;;;15.74;60.84;98205.00;4248100;27;5608;-64
2022/11/12 13:03:50;;;;;;;;;;;;;;;15.76;60.70;98187.00;4244013;27;5620;-64
2022/11/12 13:06:06;;;;;;;;;;;;;;;15.73;60.76;98196.19;4248201;27;5620;-65
2022/11/12 13:08:12;;;;;;;;;;;;;;;15.72;60.84;98189.19;4248278;27;5691;-64
2022/11/12 13:10:54;;;;;;;;;;;;;;;15.73;60.67;98185.50;4246979;27;6317;-64
2022/11/12 13:13:06;;;;;;;;;;;;;;;15.75;60.74;98187.19;4244071;27;5632;-64
2022/11/12 13:15:12;;;;;;;;;;;;;;;15.76;60.77;98181.66;4242797;27;5665;-64
2022/11/12 13:17:48;;;;;;;;;;;;;;;15.79;60.66;98183.13;4243596;27;5656;-64
2022/11/12 13:20:36;;;;;;;;;;;;;;;15.79;60.86;98175.94;4243368;27;5604;-64
2022/11/12 13:22:51;;;;;;;;;;;;;;;15.80;60.68;98179.44;4249263;27;5648;-64
2022/11/12 13:25:01;;;;;;;;;;;;;;;15.79;60.59;98167.94;4248096;27;5804;-64
2022/11/12 13:27:04;;;;;;;;;;;;;;;15.80;60.53;98179.44;4243213;27;6633;-64
2022/11/12 13:29:18;;;;;;;;;;;;;;;15.78;60.70;98171.63;4242162;27;5715;-65
2022/11/12 13:31:27;;;;;;;;;;;;;;;15.78;60.72;98163.63;4240449;27;5645;-65
2022/11/12 13:33:32;;;;;;;;;;;;;;;15.78;60.63;98165.47;4243476;27;5731;-65
2022/11/12 13:35:36;;;;;;;;;;;;;;;15.78;60.64;98170.81;4240470;27;5114;-65
2022/11/12 13:37:43;;;;;;;;;;;;;;;15.78;60.57;98176.13;4245058;27;5627;-65
2022/11/12 13:39:47;;;;;;;;;;;;;;;15.78;60.75;98165.47;4239768;27;5804;-65
2022/11/12 13:44:17;;;;;;;;;;;;;;;15.79;60.67;98167.13;4240555;27;5748;-65
2022/11/12 13:46:33;;;;;;;;;;;;;;;15.79;60.56;98162.59;4244745;27;5715;-65
2022/11/12 13:48:39;;;;;;;;;;;;;;;15.76;60.40;98164.84;4243896;27;5628;-65
2022/11/12 13:50:49;;;;;;;;;;;;;;;15.76;60.62;98167.50;4244739;27;5700;-65
2022/11/12 13:52:52;;;;;;;;;;;;;;;15.77;60.64;98169.16;4244131;27;5797;-70
2022/11/12 13:55:12;;;;;;;;;;;;;;;15.77;60.62;98169.16;4240748;27;5624;-64
2022/11/12 13:57:30;;;;;;;;;;;;;;;15.78;60.70;98165.47;4238763;27;5736;-64
2022/11/12 13:59:33;;;;;;;;;;;;;;;15.78;60.61;98163.63;4249671;27;5633;-67
2022/11/12 14:01:36;;;;;;;;;;;;;;;15.78;60.66;98165.47;4240640;27;5710;-67
2022/11/12 14:03:43;;;;;;;;;;;;;;;15.78;60.44;98165.47;4251334;27;5641;-67
2022/11/12 14:05:47;;;;;;;;;;;;;;;15.78;60.71;98160.13;4245348;27;5776;-68
2022/11/12 14:08:03;;;;;;;;;;;;;;;15.78;60.61;98152.13;4245035;27;5926;-66
2022/11/12 14:10:15;;;;;;;;;;;;;;;15.76;60.71;98156.84;4251056;27;5610;-66
2022/11/12 14:12:31;;;;;;;;;;;;;;;15.77;60.50;98153.16;4241883;27;5768;-68
2022/11/12 14:14:47;;;;;;;;;;;;;;;15.77;60.71;98139.84;4241140;27;5743;-66
2022/11/12 14:17:02;;;;;;;;;;;;;;;15.77;60.51;98145.16;4246346;27;5783;-67
2022/11/12 14:19:38;;;;;;;;;;;;;;;15.73;60.65;98145.53;4249259;27;5616;-66
2022/11/12 14:21:41;;;;;;;;;;;;;;;15.73;60.74;98144.69;4235957;27;5777;-66
2022/11/12 14:23:45;;;;;;;;;;;;;;;15.73;60.67;98137.53;4242272;27;5119;-67
2022/11/12 14:25:52;;;;;;;;;;;;;;;15.72;60.69;98133.22;4248930;27;5616;-66
2022/11/12 14:27:55;;;;;;;;;;;;;;;15.72;60.55;98135.06;4249329;27;5610;-66
2022/11/12 14:30:11;;;;;;;;;;;;;;;15.69;60.35;98125.63;4240774;27;5732;-66
2022/11/12 14:32:15;;;;;;;;;;;;;;;15.68;60.50;98133.81;4243178;27;5956;-66
2022/11/12 14:34:26;;;;;;;;;;;;;;;15.67;60.69;98127.66;4237630;27;5778;-67
2022/11/12 14:36:29;;;;;;;;;;;;;;;15.68;60.73;98133.81;4238301;27;5718;-66
2022/11/12 14:38:36;;;;;;;;;;;;;;;15.67;60.71;98132.97;4250528;27;5660;-67
2022/11/12 14:40:45;;;;;;;;;;;;;;;15.68;60.52;98133.81;4249263;27;5646;-67
2022/11/12 14:42:50;;;;;;;;;;;;;;;15.67;60.62;98117.00;4245401;27;5639;-68
2022/11/12 14:44:53;;;;;;;;;;;;;;;15.67;60.84;98130.31;4244407;27;5798;-68
2022/11/12 14:46:57;;;;;;;;;;;;;;;15.67;60.72;98127.66;4244829;27;7668;-67
2022/11/12 14:49:03;;;;;;;;;;;;;;;15.67;60.65;98124.16;4247489;27;5719;-67
2022/11/12 14:51:11;;;;;;;;;;;;;;;15.66;60.74;98120.66;4248200;27;5725;-67
2022/11/12 14:53:20;;;;;;;;;;;;;;;15.65;60.75;98119.03;4249971;27;5639;-67
2022/11/12 14:55:30;;;;;;;;;;;;;;;15.65;60.72;98112.88;4245561;27;5905;-66
2022/11/12 14:57:33;;;;;;;;;;;;;;;15.64;60.70;98117.38;4240802;27;5698;-67
2022/11/12 14:59:37;;;;;;;;;;;;;;;15.66;60.83;98117.19;4237409;27;5772;-67
2022/11/12 15:02:01;;;;;;;;;;;;;;;15.63;60.54;98117.59;4244903;27;5759;-67
2022/11/12 15:04:24;;;;;;;;;;;;;;;15.57;60.80;98115.63;4238305;27;5763;-67
2022/11/12 15:06:30;;;;;;;;;;;;;;;15.56;60.85;98119.31;4245668;27;5612;-67
2022/11/12 15:08:34;;;;;;;;;;;;;;;15.52;60.67;98110.91;4249919;27;5628;-67
2022/11/12 15:10:40;;;;;;;;;;;;;;;15.50;60.83;98102.25;4251077;27;5890;-67
2022/11/12 15:12:42;;;;;;;;;;;;;;;15.51;60.76;98095.91;4247402;27;5868;-67
2022/11/12 15:14:46;;;;;;;;;;;;;;;15.50;60.79;98099.56;4246837;27;5594;-67
2022/11/12 15:16:50;;;;;;;;;;;;;;;15.52;60.84;98092.25;4250639;27;5624;-67
2022/11/12 15:19:09;;;;;;;;;;;;;;;15.53;60.74;98093.06;4244092;27;5815;-68
2022/11/12 15:21:19;;;;;;;;;;;;;;;15.52;60.75;98084.25;4246419;27;6682;-68
2022/11/12 15:23:22;;;;;;;;;;;;;;;15.53;60.80;98085.88;4250086;27;5628;-68
2022/11/12 15:25:27;;;;;;;;;;;;;;;15.51;60.92;98089.75;4247575;27;5631;-68
2022/11/12 15:27:38;;;;;;;;;;;;;;;15.47;61.04;98075.16;4249858;27;6472;-67
2022/11/12 15:29:40;;;;;;;;;;;;;;;15.44;60.74;98076.38;4244293;27;5791;-67
2022/11/12 15:31:46;;;;;;;;;;;;;;;15.41;61.04;98069.59;4248431;27;5635;-67
2022/11/12 15:33:49;;;;;;;;;;;;;;;15.40;61.05;98067.09;4251921;27;5636;-68
2022/11/12 15:35:57;;;;;;;;;;;;;;;15.42;61.00;98070.44;4245616;27;5700;-68
2022/11/12 15:38:02;;;;;;;;;;;;;;;15.42;61.11;98065.09;4246592;27;5828;-68
2022/11/12 15:40:11;;;;;;;;;;;;;;;15.44;61.16;98050.56;4240728;27;5738;-67
2022/11/12 15:42:17;;;;;;;;;;;;;;;15.44;60.97;98052.41;4248443;27;5706;-67
2022/11/12 15:44:20;;;;;;;;;;;;;;;15.43;60.98;98048.91;4244003;27;5895;-67
2022/11/12 15:46:23;;;;;;;;;;;;;;;15.45;61.09;98054.03;4252692;27;5684;-67
2022/11/12 15:48:27;;;;;;;;;;;;;;;15.44;61.21;98049.72;4249353;27;5681;-67
2022/11/12 15:50:31;;;;;;;;;;;;;;;15.43;61.11;98058.75;4253037;27;5790;-67
2022/11/12 15:52:33;;;;;;;;;;;;;;;15.42;61.08;98057.94;4261350;27;5625;-67
2022/11/12 15:54:36;;;;;;;;;;;;;;;15.40;61.21;98049.31;4251663;27;5612;-67
2022/11/12 15:56:43;;;;;;;;;;;;;;;15.38;61.20;98051.31;4250967;27;5636;-67
2022/11/12 15:58:46;;;;;;;;;;;;;;;15.37;61.33;98048.84;4245900;27;5822;-67
2022/11/12 16:00:49;;;;;;;;;;;;;;;15.36;61.17;98044.53;4242248;27;5721;-67
2022/11/12 16:02:56;;;;;;;;;;;;;;;15.38;61.37;98043.31;4245818;27;5122;-67
2022/11/12 16:05:00;;;;;;;;;;;;;;;15.37;61.26;98043.50;4245916;27;5813;-67
2022/11/12 16:07:05;;;;;;;;;;;;;;;15.36;61.20;98040.03;4241791;27;5977;-66
2022/11/12 16:09:08;;;;;;;;;;;;;;;15.36;61.25;98040.03;4250886;27;5670;-68
2022/11/12 16:11:34;;;;;;;;;;;;;;;15.36;61.37;98042.69;4248001;27;5774;-67
2022/11/12 16:13:36;;;;;;;;;;;;;;;15.36;61.19;98047.19;4249548;27;5114;-67
2022/11/12 16:15:38;;;;;;;;;;;;;;;15.33;61.37;98039.59;4252415;27;7659;-67
2022/11/12 16:17:41;;;;;;;;;;;;;;;15.32;61.47;98035.28;4247771;27;5777;-67
2022/11/12 16:19:45;;;;;;;;;;;;;;;15.34;61.60;98025.25;4243570;27;5727;-67
2022/11/12 16:21:49;;;;;;;;;;;;;;;15.33;61.47;98024.44;4251760;27;5632;-67
2022/11/12 16:23:51;;;;;;;;;;;;;;;15.35;61.52;98025.06;4251200;27;5701;-67
2022/11/12 16:25:54;;;;;;;;;;;;;;;15.34;61.42;98025.25;4241955;27;6517;-67
2022/11/12 16:27:57;;;;;;;;;;;;;;;15.37;61.34;98040.84;4252152;27;5822;-67
2022/11/12 16:30:00;;;;;;;;;;;;;;;15.36;61.37;98033.88;4244165;27;5840;-68
2022/11/12 16:32:04;;;;;;;;;;;;;;;15.34;61.43;98035.91;4241723;27;5726;-67
2022/11/12 16:34:07;;;;;;;;;;;;;;;15.34;61.54;98031.41;4244288;27;5633;-68
2022/11/12 16:36:13;;;;;;;;;;;;;;;15.29;61.44;98033.00;4245930;27;6320;-67
2022/11/12 16:38:18;;;;;;;;;;;;;;;15.30;61.52;98038.16;4243529;27;5736;-67
2022/11/12 16:40:23;;;;;;;;;;;;;;;15.31;61.64;98036.31;4247843;27;5776;-68
2022/11/12 16:42:25;;;;;;;;;;;;;;;15.31;61.78;98036.31;4239974;27;5754;-67
2022/11/12 16:44:28;;;;;;;;;;;;;;;15.31;61.82;98023.00;4247544;27;5644;-68
2022/11/12 16:46:35;;;;;;;;;;;;;;;15.32;61.67;98032.63;4245604;27;5721;-68
2022/11/12 16:48:38;;;;;;;;;;;;;;;15.32;61.54;98033.44;4248891;27;5657;-68
2022/11/12 16:50:41;;;;;;;;;;;;;;;15.35;61.64;98034.91;4251776;27;5719;-67
2022/11/12 16:52:44;;;;;;;;;;;;;;;15.35;61.57;98033.06;4240998;27;5635;-67
2022/11/12 16:54:48;;;;;;;;;;;;;;;15.36;61.71;98037.38;4244970;27;5620;-66
2022/11/12 16:56:51;;;;;;;;;;;;;;;15.35;61.58;98033.06;4244279;27;5202;-67
2022/11/12 16:58:53;;;;;;;;;;;;;;;15.35;61.74;98032.22;4248533;27;7696;-67
2022/11/12 17:00:56;;;;;;;;;;;;;;;15.35;61.64;98026.91;4244347;27;5723;-67
2022/11/12 17:02:59;;;;;;;;;;;;;;;15.35;61.78;98024.25;4248786;27;5740;-67
2022/11/12 17:05:03;;;;;;;;;;;;;;;15.35;61.53;98024.25;4245636;27;5771;-67
2022/11/12 17:07:05;;;;;;;;;;;;;;;15.34;61.69;98025.25;4245416;27;5716;-67
2022/11/12 17:09:11;;;;;;;;;;;;;;;15.35;61.63;98025.06;4244450;27;5659;-67
2022/11/12 17:11:15;;;;;;;;;;;;;;;15.34;61.52;98022.59;4244900;27;6325;-67
2022/11/12 17:13:18;;;;;;;;;;;;;;;15.33;61.85;98029.75;4247052;27;5838;-66
2022/11/12 17:15:21;;;;;;;;;;;;;;;15.33;61.58;98034.28;4238669;27;5772;-68
2022/11/12 17:17:24;;;;;;;;;;;;;;;15.32;61.65;98032.63;4239937;27;5803;-68
2022/11/12 17:19:28;;;;;;;;;;;;;;;15.32;61.81;98019.31;4246980;27;5616;-68
2022/11/12 17:21:31;;;;;;;;;;;;;;;15.31;61.67;98013.16;4243523;27;5843;-68
2022/11/12 17:23:34;;;;;;;;;;;;;;;15.32;61.83;98017.47;4247787;27;5702;-68
2022/11/12 17:25:37;;;;;;;;;;;;;;;15.31;61.82;98020.31;4239798;27;5676;-68
2022/11/12 17:27:41;;;;;;;;;;;;;;;15.31;61.86;98020.31;4238651;27;5632;-68
2022/11/12 17:29:46;;;;;;;;;;;;;;;15.30;61.96;98022.16;4245502;27;5616;-68
2022/11/12 17:31:49;;;;;;;;;;;;;;;15.32;61.92;98024.63;4241565;27;5627;-68
2022/11/12 17:33:55;;;;;;;;;;;;;;;15.31;61.70;98023.00;4242242;27;5726;-68
2022/11/12 17:36:02;;;;;;;;;;;;;;;15.28;61.90;98010.03;4242376;27;5628;-69
2022/11/12 17:38:07;;;;;;;;;;;;;;;15.27;61.80;98011.06;4239155;27;5734;-68
2022/11/12 17:40:11;;;;;;;;;;;;;;;15.27;61.89;98008.38;4239163;27;5920;-68
2022/11/12 17:42:15;;;;;;;;;;;;;;;15.28;62.09;98005.53;4241513;27;5648;-68
2022/11/12 17:44:20;;;;;;;;;;;;;;;15.28;62.11;98004.69;4244113;27;5703;-68
2022/11/12 17:46:23;;;;;;;;;;;;;;;15.25;61.82;98005.91;4239290;27;5812;-68
2022/11/12 17:48:26;;;;;;;;;;;;;;;15.25;61.96;97994.44;4247071;27;6170;-68
2022/11/12 17:50:29;;;;;;;;;;;;;;;15.24;61.96;97998.13;4241673;27;5695;-67
2022/11/12 17:52:32;;;;;;;;;;;;;;;15.23;61.87;98002.63;4242581;27;5703;-67
2022/11/12 17:54:35;;;;;;;;;;;;;;;15.22;62.18;98006.31;4244937;27;5631;-68
2022/11/12 17:56:38;;;;;;;;;;;;;;;15.22;62.11;98010.81;4236507;27;5624;-67
2022/11/12 17:58:46;;;;;;;;;;;;;;;15.21;62.10;98015.31;4244449;27;5701;-68
2022/11/12 18:00:50;;;;;;;;;;;;;;;15.22;62.14;98005.50;4244183;27;5720;-67
2022/11/12 18:02:56;;;;;;;;;;;;;;;15.21;62.21;98007.34;4243724;27;5661;-65
2022/11/12 18:04:59;;;;;;;;;;;;;;;15.21;62.24;98002.00;4240477;27;5832;-66
2022/11/12 18:07:02;;;;;;;;;;;;;;;15.19;62.09;97995.22;4240341;27;5779;-67
2022/11/12 18:09:09;;;;;;;;;;;;;;;15.20;62.04;97994.22;4239255;27;5277;-65
2022/11/12 18:11:13;;;;;;;;;;;;;;;15.21;62.13;97993.19;4237650;27;7875;-65
2022/11/12 18:13:16;;;;;;;;;;;;;;;15.20;62.26;97991.53;4236759;27;5656;-65